Cushing, WI (54006)

11:33 AM CDT on April 27, 2015 (GMT -0500)
Amador Township | | Change Station
CLOSE
Current Station
Personal Weather Station
Location: Almelund, MN
Elevation: 880 ft
Nearby Weather Stations

Elev 880 ft 45.55 °N, 92.80 °W | Updated 1 minute ago

Clear
Clear
63.5 °F
Feels Like 63.5 °F
N
11.5
Wind Variable Wind from NNW
Gusts 11.5 mph

Today
High -- | Low -- °F
--% Chance of Precip.
Yesterday
High -- | Low -- °F
Precip. -- in
6:05 AM 8:12 PM
Waxing Gibbous, 66% visible
Pressure 30.25 in
Visibility 10.0 miles
Clouds Clear
Dew Point 28 °F
Humidity 26%
Rainfall 0.00 in
Snow Depth Not available.
UV 8 out of 12
Pollen 9.20 out of 12
Air Quality Not available.
Flu Activity Local Activity
METAR KROS 271615Z AUTO 00000KT 10SM CLR 14/M02 A3025 RMK AO2 T01441020

More Conditions Fewer Conditions

Pressure 30.25 in
Visibility 10.0 miles
Clouds Clear
Dew Point 28 °F
Humidity 26%
Rainfall 0.00 in
Snow Depth Not available.
UV 8 out of 12
Pollen 9.20 out of 12
Air Quality Not available.
Flu Activity Local Activity
METAR KROS 271615Z AUTO 00000KT 10SM CLR 14/M02 A3025 RMK AO2 T01441020

More Conditions Fewer Conditions

10-Day Weather Forecast

Almanac

Astronomy

Apr. 27, 2015 Rise Set
Actual Time
Civil Twilight
Nautical Twilight
Astronomical Twilight
Moon
Length of Visible Light
Length of Day
Tomorrow will be .
, % of the Moon is Illuminated

Today's Extremes

State Highs State Lows

Community

WunderPhotos

Upload Photos

1,817,336 photos uploaded!

WunderBlogs® & News

Nearby

Air Quality

  Air Quality AQ Index Pollutant
Not available.

Snow Depth

Station Depth Elevation

Earthquake Activity

City Distance Mag. Time & Date
Minimum magnitude displayed is 2.5.

Coastal Water Temperatures

Place Temperature

Stations

Nearby Weather Stations

Station Location Temp. Windchill Dew Point Humidity Wind Precip. Elev Updated Type